createdAt,value
2023-03-06T00:03:17.227Z,8.38
2023-03-06T00:08:44.798Z,7.38
2023-03-06T00:14:12.635Z,8.10
2023-03-06T00:19:40.796Z,9.13
2023-03-06T00:25:13.306Z,10.55
2023-03-06T00:30:40.969Z,8.57
2023-03-06T00:36:08.711Z,7.90
2023-03-06T00:41:35.835Z,8.25
2023-03-06T00:47:04.095Z,7.70
2023-03-06T00:52:32.518Z,8.07
2023-03-06T00:57:59.956Z,8.38
2023-03-06T01:03:28.949Z,8.20
2023-03-06T01:08:57.533Z,8.38
2023-03-06T01:14:26.381Z,10.25
2023-03-06T01:19:53.806Z,8.40
2023-03-06T01:25:20.785Z,6.50
2023-03-06T01:30:50.757Z,7.15
2023-03-06T01:36:19.170Z,8.20
2023-03-06T01:41:47.183Z,7.55
2023-03-06T01:47:14.631Z,6.82
2023-03-06T01:52:56.815Z,6.88
2023-03-06T01:58:24.246Z,8.60
2023-03-06T02:03:51.971Z,9.88
2023-03-06T02:09:19.307Z,9.90
2023-03-06T02:14:48.346Z,10.00
2023-03-06T02:20:26.894Z,10.15
2023-03-06T02:25:54.681Z,10.30
2023-03-06T02:31:25.442Z,10.60
2023-03-06T02:36:57.613Z,10.15
2023-03-06T02:42:26.765Z,10.43
2023-03-06T02:47:55.485Z,11.40
2023-03-06T02:53:23.459Z,12.38
2023-03-06T02:58:52.313Z,11.30
2023-03-06T03:04:21.059Z,12.23
2023-03-06T03:09:49.209Z,11.75
2023-03-06T03:15:17.168Z,11.50
2023-03-06T03:20:44.801Z,10.30
2023-03-06T03:26:14.971Z,10.48
2023-03-06T03:31:46.801Z,10.68
2023-03-06T03:37:14.417Z,11.80
2023-03-06T03:42:43.145Z,11.07
2023-03-06T03:48:11.104Z,11.55
2023-03-06T03:53:40.161Z,12.10
2023-03-06T03:59:09.309Z,10.77
2023-03-06T04:04:44.032Z,12.45
2023-03-06T04:10:13.341Z,15.70
2023-03-06T04:15:41.290Z,21.27
2023-03-06T04:21:09.391Z,23.05
2023-03-06T04:26:37.225Z,17.00
2023-03-06T04:32:05.856Z,18.23
2023-03-06T04:37:33.334Z,16.85
2023-03-06T04:43:01.778Z,15.98
2023-03-06T04:48:29.259Z,17.88
2023-03-06T04:53:56.654Z,17.90
2023-03-06T04:59:24.394Z,17.30
2023-03-06T05:04:53.748Z,17.35
2023-03-06T05:10:21.680Z,14.88
2023-03-06T05:15:49.665Z,13.77
2023-03-06T05:21:18.118Z,14.10
2023-03-06T05:26:45.375Z,13.77
2023-03-06T05:32:12.577Z,13.52
2023-03-06T05:37:40.214Z,12.77
2023-03-06T05:43:08.467Z,14.85
2023-03-06T05:48:40.597Z,15.30
2023-03-06T05:54:07.310Z,13.57
2023-03-06T05:59:34.616Z,13.75
2023-03-06T06:05:04.454Z,11.65
2023-03-06T06:10:32.631Z,11.80
2023-03-06T06:15:59.514Z,13.00
2023-03-06T06:21:26.696Z,11.07
2023-03-06T06:26:57.660Z,12.05
2023-03-06T06:32:24.718Z,11.55
2023-03-06T06:37:53.053Z,11.45
2023-03-06T06:43:20.656Z,11.52
2023-03-06T06:48:55.139Z,11.90
2023-03-06T06:54:22.646Z,11.65
2023-03-06T06:59:52.433Z,13.32
2023-03-06T07:05:21.786Z,13.63
2023-03-06T07:10:51.297Z,13.52
2023-03-06T07:16:18.835Z,13.07
2023-03-06T07:21:46.706Z,12.55
2023-03-06T07:27:13.805Z,13.75
2023-03-06T07:32:43.395Z,13.00
2023-03-06T07:38:11.657Z,14.25
2023-03-06T07:43:43.638Z,15.13
2023-03-06T07:49:13.000Z,13.05
2023-03-06T07:54:41.061Z,13.73
2023-03-06T08:00:15.128Z,14.35
2023-03-06T08:05:44.568Z,15.80
2023-03-06T08:11:13.532Z,15.43
2023-03-06T08:16:41.121Z,14.18
2023-03-06T08:22:08.788Z,15.05
2023-03-06T08:27:36.752Z,15.27
2023-03-06T08:33:03.832Z,15.55
2023-03-06T08:38:32.135Z,15.98
2023-03-06T08:44:00.657Z,16.00
2023-03-06T08:49:28.180Z,14.05
2023-03-06T08:54:55.899Z,13.23
2023-03-06T09:00:23.188Z,15.63
2023-03-06T09:05:52.689Z,14.30
2023-03-06T09:11:21.429Z,14.15
2023-03-06T09:16:49.310Z,13.93
2023-03-06T09:22:17.116Z,13.95
2023-03-06T09:27:43.812Z,12.80
2023-03-06T09:33:11.369Z,12.75
2023-03-06T09:38:39.041Z,12.40
2023-03-06T09:44:26.245Z,11.40
2023-03-06T09:50:04.978Z,11.57
2023-03-06T09:55:35.945Z,11.48
2023-03-06T10:01:35.133Z,11.27
2023-03-06T10:07:13.549Z,10.63
2023-03-06T10:19:21.308Z,11.57
2023-03-06T10:24:57.924Z,11.15
2023-03-06T10:30:39.933Z,11.43
2023-03-06T10:36:10.878Z,11.35
2023-03-06T10:41:38.988Z,12.00
2023-03-06T10:47:31.299Z,12.50
2023-03-06T10:53:20.260Z,10.77
2023-03-06T10:58:47.451Z,11.27
2023-03-06T11:04:28.982Z,12.13
2023-03-06T11:09:59.618Z,11.10
2023-03-06T11:15:29.778Z,10.20
2023-03-06T11:20:58.052Z,10.18
2023-03-06T11:26:34.168Z,11.15
2023-03-06T11:32:28.135Z,9.85
2023-03-06T11:38:01.179Z,11.02
2023-03-06T11:43:49.720Z,9.95
2023-03-06T11:49:24.779Z,9.95
2023-03-06T11:54:56.544Z,9.55
2023-03-06T12:01:13.416Z,9.43
2023-03-06T12:06:46.447Z,9.68
2023-03-06T12:12:28.337Z,10.07
2023-03-06T12:18:10.596Z,10.32
2023-03-06T12:23:55.753Z,9.43
2023-03-06T12:29:42.203Z,10.73
2023-03-06T12:35:09.455Z,10.30
2023-03-06T12:40:45.411Z,10.23
2023-03-06T12:46:22.590Z,10.15
2023-03-06T12:51:49.869Z,10.98
2023-03-06T12:57:17.630Z,10.82
2023-03-06T13:02:55.689Z,10.77
2023-03-06T13:08:33.495Z,10.40
2023-03-06T13:14:00.757Z,11.20
2023-03-06T13:19:28.052Z,11.05
2023-03-06T13:25:17.471Z,10.07
2023-03-06T13:30:46.346Z,9.88
2023-03-06T13:36:34.258Z,10.15
2023-03-06T13:42:01.915Z,10.38
2023-03-06T13:47:46.092Z,9.45
2023-03-06T13:53:41.019Z,7.68
2023-03-06T13:59:39.415Z,10.60
2023-03-06T14:05:14.964Z,13.30
2023-03-06T14:10:45.182Z,14.52
2023-03-06T14:16:32.606Z,13.63
2023-03-06T14:22:04.696Z,13.07
2023-03-06T14:27:39.907Z,14.30
2023-03-06T14:33:11.565Z,13.13
2023-03-06T14:38:48.328Z,14.73
2023-03-06T14:44:20.773Z,15.25
2023-03-06T14:49:48.943Z,15.25
2023-03-06T14:55:20.093Z,14.88
2023-03-06T15:00:52.329Z,14.63
2023-03-06T15:06:42.190Z,14.80
2023-03-06T15:12:20.082Z,13.77
2023-03-06T15:17:49.587Z,13.82
2023-03-06T15:23:25.796Z,13.38
2023-03-06T15:29:23.669Z,14.35
2023-03-06T15:35:26.086Z,14.65
2023-03-06T15:41:01.820Z,15.25
2023-03-06T15:46:29.912Z,14.80
2023-03-06T15:51:57.627Z,16.17
2023-03-06T15:57:29.353Z,16.35
2023-03-06T16:02:59.239Z,16.73
2023-03-06T16:08:32.020Z,16.02
2023-03-06T16:14:01.675Z,16.02
2023-03-06T16:19:29.305Z,18.75
2023-03-06T16:24:57.328Z,17.90
2023-03-06T16:30:31.311Z,17.30
2023-03-06T16:35:59.408Z,19.33
2023-03-06T16:41:27.844Z,19.00
2023-03-06T16:46:56.104Z,18.83
2023-03-06T16:52:24.524Z,19.23
2023-03-06T16:57:56.738Z,20.13
2023-03-06T17:03:26.790Z,22.33
2023-03-06T17:09:01.222Z,20.48
2023-03-06T17:14:35.004Z,21.35
2023-03-06T17:20:05.946Z,25.75
2023-03-06T17:25:35.273Z,27.75
2023-03-06T17:31:14.227Z,26.63
2023-03-06T17:36:48.581Z,22.65
2023-03-06T17:42:18.166Z,22.67
2023-03-06T17:47:48.967Z,21.92
2023-03-06T17:53:21.588Z,20.70
2023-03-06T17:58:50.696Z,21.55
2023-03-06T18:04:19.621Z,24.65
2023-03-06T18:09:51.083Z,25.73
2023-03-06T18:15:19.975Z,24.90
2023-03-06T18:20:47.706Z,29.48
2023-03-06T18:26:24.564Z,28.30
2023-03-06T18:31:54.179Z,34.00
2023-03-06T18:37:27.040Z,29.27
2023-03-06T18:42:57.105Z,38.38
2023-03-06T18:48:26.195Z,39.70
2023-03-06T18:53:53.714Z,31.52
2023-03-06T18:59:21.529Z,29.38
2023-03-06T19:04:48.705Z,27.67
2023-03-06T19:10:16.904Z,25.42
2023-03-06T19:15:46.646Z,28.15
2023-03-06T19:21:16.323Z,29.63
2023-03-06T19:26:43.755Z,29.50
2023-03-06T19:32:11.971Z,31.77
2023-03-06T19:37:39.827Z,26.45
2023-03-06T19:43:08.173Z,27.90
2023-03-06T19:48:35.830Z,27.65
2023-03-06T19:54:03.964Z,25.45
2023-03-06T19:59:31.777Z,26.13
2023-03-06T20:04:59.609Z,25.13
2023-03-06T20:10:27.651Z,23.95
2023-03-06T20:15:54.548Z,23.98
2023-03-06T20:21:25.136Z,25.33
2023-03-06T20:26:58.593Z,24.83
2023-03-06T20:32:25.921Z,31.83
2023-03-06T20:37:54.024Z,31.83
2023-03-06T20:43:22.090Z,32.30
2023-03-06T20:48:52.642Z,29.85
2023-03-06T20:54:21.566Z,31.85
2023-03-06T20:59:49.146Z,35.22
2023-03-06T21:05:17.187Z,30.52
2023-03-06T21:10:46.919Z,27.70
2023-03-06T21:16:19.450Z,31.17
2023-03-06T21:21:46.850Z,31.83
2023-03-06T21:27:14.051Z,29.85
2023-03-06T21:32:42.350Z,28.15
2023-03-06T21:38:10.538Z,28.08
2023-03-06T21:43:38.568Z,30.65
2023-03-06T21:49:06.258Z,29.02
2023-03-06T21:54:34.034Z,28.55
2023-03-06T22:00:01.111Z,29.75
2023-03-06T22:05:29.923Z,30.55
2023-03-06T22:10:57.166Z,29.23
2023-03-06T22:16:24.506Z,26.60
2023-03-06T22:21:52.443Z,27.45
2023-03-06T22:27:20.220Z,25.95
2023-03-06T22:32:50.275Z,28.95
2023-03-06T22:38:19.354Z,29.33
2023-03-06T22:43:47.478Z,30.58
2023-03-06T22:49:17.093Z,32.63
2023-03-06T22:54:44.292Z,28.30
2023-03-06T23:00:12.422Z,29.50
2023-03-06T23:05:43.326Z,29.60
2023-03-06T23:11:14.781Z,27.92
2023-03-06T23:17:00.583Z,28.33
2023-03-06T23:22:46.809Z,31.02
2023-03-06T23:28:32.840Z,32.88
2023-03-06T23:34:02.938Z,34.05
2023-03-06T23:39:30.658Z,35.30
2023-03-06T23:44:58.095Z,34.58
2023-03-06T23:50:26.556Z,34.17
2023-03-06T23:55:54.620Z,32.50
